Time;durP1;ratioP1;P1;durP2;ratioP2;P2;SDS_P1;SDS_P2;PMS_P1;PMS_P2;Temp;Humidity;BMP_temperature;BMP_pressure;BME280_temperature;BME280_humidity;BME280_pressure;Samples;Min_cycle;Max_cycle;Signal;HPM_P1;HPM_P2
2021/12/03 00:00:18;;;;;;;7.80;2.27;;;;;;;-4.76;100.00;99842.28;5015229;28;20481;-79
2021/12/03 00:02:45;;;;;;;3.43;1.77;;;;;;;-4.80;100.00;99845.56;5020481;28;20490;-79
2021/12/03 00:05:11;;;;;;;4.87;2.13;;;;;;;-4.78;100.00;99847.34;5014674;28;20483;-79
2021/12/03 00:07:40;;;;;;;3.97;1.73;;;;;;;-4.84;100.00;99852.25;5018550;28;20557;-79
2021/12/03 00:10:10;;;;;;;5.50;1.57;;;;;;;-4.86;100.00;99859.00;5013858;28;20847;-79
2021/12/03 00:12:38;;;;;;;2.53;1.30;;;;;;;-4.84;100.00;99853.94;5018891;28;20516;-79
2021/12/03 00:15:05;;;;;;;4.40;1.97;;;;;;;-4.90;100.00;99852.13;5014818;28;20462;-78
2021/12/03 00:17:32;;;;;;;2.20;1.40;;;;;;;-4.80;100.00;99871.88;5021194;28;21148;-78
2021/12/03 00:19:59;;;;;;;3.40;1.63;;;;;;;-4.63;100.00;99877.34;5018747;28;20544;-79
2021/12/03 00:22:26;;;;;;;2.00;1.40;;;;;;;-4.60;100.00;99871.47;5021243;28;20973;-79
2021/12/03 00:24:52;;;;;;;8.00;1.80;;;;;;;-4.69;100.00;99876.38;5021196;28;20525;-79
2021/12/03 00:27:20;;;;;;;3.13;1.50;;;;;;;-4.87;100.00;99886.94;5026298;28;20786;-79
2021/12/03 00:29:46;;;;;;;3.90;1.67;;;;;;;-4.96;100.00;99891.00;5017471;28;20465;-79
2021/12/03 00:32:13;;;;;;;8.87;1.90;;;;;;;-5.05;100.00;99895.81;5025804;28;21167;-78
2021/12/03 00:34:39;;;;;;;1.97;1.50;;;;;;;-5.08;100.00;99898.31;5018717;28;20455;-78
2021/12/03 00:37:06;;;;;;;3.97;1.57;;;;;;;-4.94;100.00;99898.66;5028902;28;20466;-79
2021/12/03 00:39:32;;;;;;;2.43;1.33;;;;;;;-5.11;100.00;99907.53;5021433;28;21001;-79
2021/12/03 00:42:01;;;;;;;4.73;1.80;;;;;;;-5.14;100.00;99911.72;5015453;28;20466;-79
2021/12/03 00:44:30;;;;;;;6.23;1.80;;;;;;;-5.11;100.00;99916.03;5023717;28;20481;-79
2021/12/03 00:46:57;;;;;;;4.37;1.80;;;;;;;-5.14;100.00;99910.84;5018056;28;20463;-79
2021/12/03 00:49:24;;;;;;;4.47;1.50;;;;;;;-5.14;100.00;99921.91;5024292;28;20472;-80
2021/12/03 00:51:50;;;;;;;5.83;1.40;;;;;;;-5.13;100.00;99922.75;5022202;28;20466;-79
2021/12/03 00:54:17;;;;;;;4.70;1.73;;;;;;;-5.12;100.00;99921.91;5018326;28;20479;-79
2021/12/03 00:56:44;;;;;;;4.53;1.93;;;;;;;-5.14;100.00;99921.03;5022595;28;20560;-79
2021/12/03 00:59:10;;;;;;;4.23;1.50;;;;;;;-5.18;100.00;99925.16;5024955;28;21014;-78
2021/12/03 01:01:39;;;;;;;3.73;1.60;;;;;;;-5.21;100.00;99926.75;5024873;28;20461;-79
2021/12/03 01:04:06;;;;;;;7.77;2.17;;;;;;;-5.19;100.00;99923.47;5025465;28;20500;-79
2021/12/03 01:06:33;;;;;;;3.53;1.90;;;;;;;-5.08;100.00;99926.28;5019516;28;20863;-79
2021/12/03 01:08:59;;;;;;;2.10;1.50;;;;;;;-5.14;100.00;99929.53;5017152;28;20717;-79
2021/12/03 01:11:25;;;;;;;2.97;1.70;;;;;;;-5.09;100.00;99938.94;5019343;28;20490;-79
2021/12/03 01:13:53;;;;;;;2.03;1.70;;;;;;;-5.19;100.00;99936.16;5023954;28;20477;-79
2021/12/03 01:16:19;;;;;;;5.50;1.77;;;;;;;-5.25;100.00;99946.16;5021033;28;20473;-79
2021/12/03 01:18:47;;;;;;;4.50;1.80;;;;;;;-5.24;100.00;99941.94;5023974;28;20454;-79
2021/12/03 01:21:15;;;;;;;11.53;2.20;;;;;;;-5.25;100.00;99948.69;5019828;28;20471;-79
2021/12/03 01:23:41;;;;;;;6.23;1.90;;;;;;;-5.21;100.00;99954.72;5026371;28;20497;-79
2021/12/03 01:26:08;;;;;;;3.43;1.70;;;;;;;-5.24;100.00;99949.56;5021112;28;20494;-79
2021/12/03 01:28:34;;;;;;;2.60;1.80;;;;;;;-5.25;100.00;99951.25;5020098;28;20469;-79
2021/12/03 01:31:02;;;;;;;5.17;1.83;;;;;;;-5.11;100.00;99955.84;5020308;28;20482;-79
2021/12/03 01:33:29;;;;;;;3.03;1.70;;;;;;;-5.03;100.00;99939.09;5022510;28;20568;-79
2021/12/03 01:35:57;;;;;;;4.27;1.70;;;;;;;-5.02;100.00;99951.84;5022305;28;20502;-79
2021/12/03 01:38:23;;;;;;;5.10;2.03;;;;;;;-5.23;100.00;99949.59;5020928;28;20459;-79
2021/12/03 01:40:49;;;;;;;4.77;2.23;;;;;;;-5.20;100.00;99949.69;5022809;28;20470;-79
2021/12/03 01:43:21;;;;;;;11.20;2.40;;;;;;;-5.18;100.00;99947.19;5022550;28;20577;-79
2021/12/03 01:45:48;;;;;;;4.33;2.03;;;;;;;-5.22;100.00;99951.34;5020521;28;20493;-79
2021/12/03 01:48:14;;;;;;;4.50;1.73;;;;;;;-5.18;100.00;99962.44;5020901;28;20471;-79
2021/12/03 01:50:43;;;;;;;3.07;1.73;;;;;;;-5.18;100.00;99947.19;5023618;28;20840;-79
2021/12/03 01:53:13;;;;;;;6.90;2.57;;;;;;;-5.23;100.00;99951.28;5022443;28;20493;-79
2021/12/03 01:55:40;;;;;;;4.13;1.70;;;;;;;-5.33;100.00;99948.50;5017641;28;20452;-79
2021/12/03 01:58:07;;;;;;;8.07;2.50;;;;;;;-5.38;100.00;99946.63;5022905;28;20983;-79
2021/12/03 02:00:38;;;;;;;7.93;2.37;;;;;;;-5.24;100.00;99952.97;5019071;28;20451;-79
2021/12/03 02:03:07;;;;;;;4.90;2.20;;;;;;;-5.23;100.00;99946.19;5021869;28;20484;-79
2021/12/03 02:05:33;;;;;;;5.20;2.40;;;;;;;-5.37;100.00;99948.38;5023767;28;20474;-79
2021/12/03 02:08:00;;;;;;;8.27;2.00;;;;;;;-5.36;100.00;99948.41;5018874;28;20792;-79
2021/12/03 02:10:28;;;;;;;6.83;2.37;;;;;;;-5.31;100.00;99961.25;5026223;28;20844;-79
2021/12/03 02:12:56;;;;;;;7.23;2.37;;;;;;;-5.20;100.00;99957.31;5021779;28;20486;-79
2021/12/03 02:15:23;;;;;;;5.30;2.07;;;;;;;-5.23;100.00;99957.22;5023736;28;20458;-79
2021/12/03 02:17:50;;;;;;;5.50;2.10;;;;;;;-5.26;100.00;99957.16;5018521;28;20469;-79
2021/12/03 02:20:17;;;;;;;4.33;2.67;;;;;;;-5.38;100.00;99955.13;5024252;28;20844;-79
2021/12/03 02:22:46;;;;;;;6.10;2.60;;;;;;;-5.41;100.00;99954.19;5019612;28;20493;-78
2021/12/03 02:25:16;;;;;;;6.97;2.40;;;;;;;-5.47;100.00;99954.00;5024603;28;20490;-79
2021/12/03 02:27:43;;;;;;;9.70;3.03;;;;;;;-5.53;100.00;99973.34;5022698;28;20493;-79
2021/12/03 02:30:11;;;;;;;5.00;2.47;;;;;;;-5.44;100.00;99971.88;5026735;28;20470;-79
2021/12/03 02:32:37;;;;;;;4.13;2.50;;;;;;;-5.52;100.00;99969.16;5019778;28;20484;-79
2021/12/03 02:35:05;;;;;;;9.60;3.43;;;;;;;-5.53;100.00;99968.25;5025612;28;20450;-79
2021/12/03 02:37:32;;;;;;;4.87;2.70;;;;;;;-5.47;100.00;99979.41;5019874;28;20530;-79
2021/12/03 02:39:59;;;;;;;9.23;3.17;;;;;;;-5.46;100.00;99979.47;5021079;28;20452;-79
2021/12/03 02:42:26;;;;;;;7.13;3.00;;;;;;;-5.46;100.00;99976.91;5023341;28;20836;-79
2021/12/03 02:44:52;;;;;;;5.83;3.37;;;;;;;-5.44;100.00;99977.81;5017018;28;20470;-80
2021/12/03 02:47:19;;;;;;;9.43;3.70;;;;;;;-5.45;100.00;99981.19;5017520;28;20455;-79
2021/12/03 02:49:45;;;;;;;8.90;3.50;;;;;;;-5.42;100.00;99986.34;5012662;28;20467;-79
2021/12/03 02:52:12;;;;;;;4.73;3.20;;;;;;;-5.46;100.00;99982.00;5022753;28;20461;-79
2021/12/03 02:54:39;;;;;;;10.63;3.33;;;;;;;-5.44;100.00;99982.91;5016120;28;20518;-79
2021/12/03 02:57:07;;;;;;;8.83;3.43;;;;;;;-5.45;100.00;99972.69;5023455;28;20456;-79
2021/12/03 02:59:33;;;;;;;5.53;3.10;;;;;;;-5.42;100.00;99976.19;5018530;28;20466;-79
2021/12/03 03:02:01;;;;;;;14.53;3.40;;;;;;;-5.43;100.00;99982.09;5022343;28;20465;-79
2021/12/03 03:04:27;;;;;;;6.00;3.23;;;;;;;-5.42;100.00;99981.25;5021746;28;20871;-79
2021/12/03 03:06:54;;;;;;;5.57;3.03;;;;;;;-5.43;100.00;99982.09;5017877;28;20498;-80
2021/12/03 03:09:21;;;;;;;8.30;3.30;;;;;;;-5.41;100.00;99977.06;5016648;28;20928;-79
2021/12/03 03:11:47;;;;;;;4.67;3.00;;;;;;;-5.46;100.00;99976.91;5023501;28;20454;-79
2021/12/03 03:14:15;;;;;;;6.80;3.17;;;;;;;-5.42;100.00;99972.78;5019419;28;20486;-79
2021/12/03 03:16:42;;;;;;;6.60;3.13;;;;;;;-5.38;100.00;99972.03;5022007;28;20469;-79
2021/12/03 03:19:12;;;;;;;11.00;3.30;;;;;;;-5.30;100.00;99964.66;5018989;28;20455;-79
2021/12/03 03:21:39;;;;;;;9.73;3.90;;;;;;;-5.32;100.00;99965.47;5018960;28;20463;-79
2021/12/03 03:24:07;;;;;;;10.27;3.47;;;;;;;-5.27;100.00;99970.69;5021716;28;20582;-79
2021/12/03 03:26:36;;;;;;;6.33;3.37;;;;;;;-5.29;100.00;99974.88;5016077;28;21007;-79
2021/12/03 03:29:04;;;;;;;5.30;3.40;;;;;;;-5.25;100.00;99978.34;5021745;28;21022;-79
2021/12/03 03:31:32;;;;;;;6.63;3.57;;;;;;;-5.27;100.00;99965.59;5023912;28;20474;-79
2021/12/03 03:33:58;;;;;;;12.57;3.07;;;;;;;-5.26;100.00;99971.53;5019373;28;21240;-79
2021/12/03 03:36:25;;;;;;;10.43;3.53;;;;;;;-5.28;100.00;99971.47;5019515;28;20556;-79
2021/12/03 03:38:51;;;;;;;6.80;3.57;;;;;;;-5.20;100.00;99976.78;5019174;28;20462;-79
2021/12/03 03:41:18;;;;;;;11.37;3.87;;;;;;;-5.26;100.00;99969.88;5013991;28;20458;-79
2021/12/03 03:43:45;;;;;;;7.43;3.37;;;;;;;-5.20;100.00;99974.25;5020357;28;20842;-79
2021/12/03 03:46:11;;;;;;;10.60;4.40;;;;;;;-5.18;100.00;99965.84;5020731;28;20487;-79
2021/12/03 03:48:39;;;;;;;8.73;4.40;;;;;;;-5.15;100.00;99960.00;5018593;28;20462;-79
2021/12/03 03:51:05;;;;;;;10.27;4.80;;;;;;;-5.11;100.00;99964.31;5021387;28;20549;-79
2021/12/03 03:53:32;;;;;;;10.17;4.20;;;;;;;-5.12;100.00;99965.13;5016338;28;20510;-80
2021/12/03 03:55:58;;;;;;;10.67;4.13;;;;;;;-5.11;100.00;99968.56;5022357;28;20464;-79
2021/12/03 03:58:25;;;;;;;12.07;4.87;;;;;;;-5.07;100.00;99970.34;5024764;28;20477;-78
2021/12/03 04:00:51;;;;;;;9.10;4.33;;;;;;;-5.05;100.00;99973.78;5021445;28;20470;-79
2021/12/03 04:03:18;;;;;;;11.10;4.57;;;;;;;-5.01;100.00;99973.06;5021718;28;20475;-79
2021/12/03 04:05:46;;;;;;;12.43;5.50;;;;;;;-5.01;100.00;99984.09;5023292;28;20482;-79
2021/12/03 04:08:12;;;;;;;6.50;4.20;;;;;;;-5.02;100.00;99982.34;5025874;28;20466;-79
2021/12/03 04:10:38;;;;;;;15.27;4.60;;;;;;;-5.01;100.00;99973.91;5025365;28;20470;-79
2021/12/03 04:13:05;;;;;;;8.27;4.23;;;;;;;-4.99;100.00;99972.28;5028114;28;20488;-79
2021/12/03 04:15:31;;;;;;;9.80;5.07;;;;;;;-4.96;100.00;99963.84;5023835;28;20468;-79
2021/12/03 04:17:58;;;;;;;8.63;5.00;;;;;;;-4.95;100.00;99960.50;5026617;28;20621;-79
2021/12/03 04:20:24;;;;;;;9.43;4.77;;;;;;;-4.95;100.00;99968.13;5023725;28;20561;-78
2021/12/03 04:22:52;;;;;;;8.23;4.97;;;;;;;-4.92;100.00;99959.69;5019569;28;20470;-79
2021/12/03 04:25:21;;;;;;;7.83;4.53;;;;;;;-4.86;100.00;99968.34;5026415;28;20809;-79
2021/12/03 04:27:48;;;;;;;8.80;4.97;;;;;;;-4.84;100.00;99976.03;5021639;28;20466;-79
2021/12/03 04:30:18;;;;;;;16.70;5.67;;;;;;;-4.84;100.00;99970.94;5027277;28;20461;-79
2021/12/03 04:32:45;;;;;;;9.77;4.53;;;;;;;-4.76;100.00;99972.88;5025545;28;21348;-79
2021/12/03 04:35:12;;;;;;;8.90;5.07;;;;;;;-4.74;100.00;99972.06;5022866;28;21000;-79
2021/12/03 04:37:39;;;;;;;10.80;5.13;;;;;;;-4.73;100.00;99973.75;5025241;28;20462;-79
2021/12/03 04:40:10;;;;;;;16.03;4.93;;;;;;;-4.71;100.00;99975.53;5022701;28;20458;-79
2021/12/03 04:42:37;;;;;;;8.87;4.57;;;;;;;-4.65;100.00;99975.66;5023345;28;20501;-79
2021/12/03 04:45:05;;;;;;;12.13;4.90;;;;;;;-4.63;100.00;99971.47;5029263;28;20495;-79
2021/12/03 04:47:31;;;;;;;9.00;4.47;;;;;;;-4.66;100.00;99973.09;5021425;28;20480;-79
2021/12/03 04:49:58;;;;;;;12.63;5.43;;;;;;;-4.66;100.00;99976.50;5024899;28;20465;-80
2021/12/03 04:52:25;;;;;;;12.50;5.00;;;;;;;-4.67;100.00;99974.78;5026258;28;20470;-79
2021/12/03 04:54:51;;;;;;;9.40;4.87;;;;;;;-4.65;100.00;99977.38;5027312;28;20497;-79
2021/12/03 04:57:19;;;;;;;10.80;4.33;;;;;;;-4.55;100.00;99976.78;5025100;28;20470;-79
2021/12/03 04:59:45;;;;;;;12.00;5.10;;;;;;;-4.51;100.00;99981.09;5024777;28;20470;-79
2021/12/03 05:02:12;;;;;;;8.43;4.50;;;;;;;-4.44;100.00;99993.16;5023172;28;20468;-79
2021/12/03 05:04:38;;;;;;;12.63;4.33;;;;;;;-4.43;100.00;99984.72;5027487;28;20494;-79
2021/12/03 05:07:17;;;;;;;12.43;4.20;;;;;;;-4.47;100.00;99993.06;5023739;28;20619;-79
2021/12/03 05:09:43;;;;;;;7.50;4.00;;;;;;;-4.43;100.00;100004.22;5018644;28;20530;-79
2021/12/03 05:12:10;;;;;;;6.93;3.73;;;;;;;-4.37;100.00;100011.97;5023948;28;20924;-79
2021/12/03 05:14:38;;;;;;;11.57;4.27;;;;;;;-4.33;100.00;100003.59;5022013;28;20482;-79
2021/12/03 05:17:05;;;;;;;7.23;3.77;;;;;;;-4.27;100.00;100003.75;5022971;28;20469;-79
2021/12/03 05:19:31;;;;;;;14.70;4.20;;;;;;;-4.25;100.00;100007.19;5022814;28;21042;-79
2021/12/03 05:21:58;;;;;;;9.17;3.80;;;;;;;-4.25;100.00;100004.66;5023979;28;20464;-79
2021/12/03 05:24:24;;;;;;;9.13;3.73;;;;;;;-4.22;100.00;100017.47;5024463;28;20487;-79
2021/12/03 05:26:51;;;;;;;16.67;4.37;;;;;;;-4.19;100.00;100019.19;5029149;28;20483;-79
2021/12/03 05:29:18;;;;;;;8.43;4.17;;;;;;;-4.21;100.00;100021.72;5015482;28;20473;-79
2021/12/03 05:31:46;;;;;;;11.63;4.20;;;;;;;-4.24;100.00;100016.56;5026135;28;20459;-80
2021/12/03 05:34:15;;;;;;;6.77;3.93;;;;;;;-4.16;100.00;100013.34;5022681;28;20480;-79
2021/12/03 05:36:41;;;;;;;9.07;3.77;;;;;;;-4.16;100.00;100023.53;5019897;28;20464;-79
2021/12/03 05:39:08;;;;;;;6.73;3.13;;;;;;;-4.16;100.00;100026.06;5021145;28;20474;-78
2021/12/03 05:41:35;;;;;;;10.80;3.70;;;;;;;-4.19;100.00;100037.03;5024996;28;20451;-79
2021/12/03 05:44:03;;;;;;;8.23;3.70;;;;;;;-4.13;100.00;100034.63;5024830;28;20522;-79
2021/12/03 05:46:30;;;;;;;9.27;4.33;;;;;;;-3.98;100.00;100040.91;5025950;28;20483;-79
2021/12/03 05:48:58;;;;;;;10.87;4.10;;;;;;;-3.96;100.00;100042.66;5027115;28;20494;-79
2021/12/03 05:51:26;;;;;;;7.60;4.03;;;;;;;-3.95;100.00;100044.38;5025988;28;20466;-79
2021/12/03 05:53:53;;;;;;;9.67;4.47;;;;;;;-3.85;100.00;100048.03;5021406;28;21253;-79
2021/12/03 05:56:19;;;;;;;11.57;4.13;;;;;;;-3.80;100.00;100056.59;5027850;28;20461;-80
2021/12/03 05:58:45;;;;;;;7.97;3.67;;;;;;;-3.80;100.00;100043.88;5023591;28;20468;-79
2021/12/03 06:01:12;;;;;;;7.30;3.80;;;;;;;-3.75;100.00;100052.47;5023703;28;20569;-80
2021/12/03 06:03:38;;;;;;;8.83;4.47;;;;;;;-3.74;100.00;100054.22;5020827;28;20484;-79
2021/12/03 06:06:06;;;;;;;10.23;4.87;;;;;;;-3.77;100.00;100054.13;5017421;28;20542;-79
2021/12/03 06:08:32;;;;;;;15.20;5.07;;;;;;;-3.74;100.00;100064.41;5020963;28;20461;-79
2021/12/03 06:10:59;;;;;;;9.73;4.80;;;;;;;-3.73;100.00;100072.91;5023420;28;20476;-80
2021/12/03 06:13:25;;;;;;;9.03;4.37;;;;;;;-3.72;100.00;100075.47;5022861;28;20484;-79
2021/12/03 06:15:51;;;;;;;12.40;4.93;;;;;;;-3.68;100.00;100081.50;5015663;28;20469;-79
2021/12/03 06:18:18;;;;;;;11.47;4.77;;;;;;;-3.60;100.00;100081.72;5022830;28;20479;-79
2021/12/03 06:20:44;;;;;;;9.57;4.43;;;;;;;-3.51;100.00;100087.84;5022792;28;20466;-79
2021/12/03 06:23:12;;;;;;;9.73;4.80;;;;;;;-3.47;100.00;100086.22;5023408;28;20480;-79
2021/12/03 06:25:38;;;;;;;11.30;5.03;;;;;;;-3.46;100.00;100088.81;5019551;28;20457;-79
2021/12/03 06:28:05;;;;;;;10.50;5.43;;;;;;;-3.44;100.00;100087.16;5024837;28;20491;-79
2021/12/03 06:30:32;;;;;;;11.87;5.37;;;;;;;-3.44;100.00;100089.72;5024816;28;20472;-79
2021/12/03 06:32:58;;;;;;;12.83;5.37;;;;;;;-3.43;100.00;100101.63;5024077;28;20505;-79
2021/12/03 06:35:25;;;;;;;10.60;5.53;;;;;;;-3.41;100.00;100096.56;5021644;28;20469;-79
2021/12/03 06:37:51;;;;;;;7.53;4.90;;;;;;;-3.38;100.00;100103.41;5022933;28;20456;-79
2021/12/03 06:40:22;;;;;;;12.60;5.07;;;;;;;-3.37;100.00;100103.47;5017321;28;20461;-80
2021/12/03 06:42:49;;;;;;;10.50;5.40;;;;;;;-3.38;100.00;100109.38;5015734;28;20486;-78
2021/12/03 06:45:16;;;;;;;13.13;5.50;;;;;;;-3.39;100.00;100111.88;5018709;28;20461;-79
2021/12/03 06:47:44;;;;;;;14.67;5.10;;;;;;;-3.41;100.00;100109.31;5013249;28;21000;-79
2021/12/03 06:50:13;;;;;;;8.37;4.60;;;;;;;-3.40;100.00;100115.28;5015884;28;20878;-79
2021/12/03 06:52:41;;;;;;;11.97;5.10;;;;;;;-3.37;100.00;100123.00;5022675;28;20546;-80
2021/12/03 06:55:11;;;;;;;12.87;4.83;;;;;;;-3.31;100.00;100123.97;5016480;28;20773;-80
2021/12/03 06:57:41;;;;;;;8.90;5.23;;;;;;;-3.25;100.00;100128.38;5016594;28;20454;-80
2021/12/03 07:00:09;;;;;;;9.90;4.60;;;;;;;-3.21;100.00;100132.69;5022182;28;20486;-81
2021/12/03 07:02:36;;;;;;;9.80;4.60;;;;;;;-3.17;100.00;100129.38;5020201;28;21231;-81
2021/12/03 07:05:04;;;;;;;12.57;5.10;;;;;;;-3.14;100.00;100137.09;5018469;28;20504;-80
2021/12/03 07:07:30;;;;;;;10.37;4.77;;;;;;;-3.06;100.00;100137.25;5019193;28;20481;-79
2021/12/03 07:09:57;;;;;;;8.17;4.67;;;;;;;-3.02;100.00;100144.16;5015956;28;20462;-79
2021/12/03 07:12:23;;;;;;;9.20;4.73;;;;;;;-3.01;100.00;100137.38;5016858;28;20460;-79
2021/12/03 07:14:51;;;;;;;10.53;4.40;;;;;;;-3.00;100.00;100141.66;5021243;28;20465;-79
2021/12/03 07:17:17;;;;;;;9.47;4.43;;;;;;;-2.97;100.00;100145.13;5012904;28;20457;-80
2021/12/03 07:19:44;;;;;;;10.20;4.37;;;;;;;-2.95;100.00;100142.59;5016831;28;20467;-79
2021/12/03 07:22:10;;;;;;;11.73;3.77;;;;;;;-2.94;100.00;100147.72;5019321;28;20457;-78
2021/12/03 07:24:36;;;;;;;6.57;4.00;;;;;;;-2.96;100.00;100144.28;5017026;28;20491;-79
2021/12/03 07:27:05;;;;;;;8.40;4.43;;;;;;;-2.97;100.00;100149.34;5020401;28;20489;-79
2021/12/03 07:29:32;;;;;;;7.57;4.20;;;;;;;-2.97;100.00;100146.78;5023078;28;20877;-79
2021/12/03 07:31:59;;;;;;;7.87;4.10;;;;;;;-2.93;100.00;100144.34;5018070;28;20454;-79
2021/12/03 07:34:26;;;;;;;7.50;3.70;;;;;;;-2.93;100.00;100152.00;5023939;28;20502;-79
2021/12/03 07:36:52;;;;;;;10.57;3.87;;;;;;;-2.94;100.00;100149.41;5018761;28;20490;-78
2021/12/03 07:39:19;;;;;;;8.97;3.87;;;;;;;-2.95;100.00;100138.34;5022276;28;20457;-78
2021/12/03 07:41:45;;;;;;;9.53;3.53;;;;;;;-2.91;100.00;100144.38;5016333;28;20468;-79
2021/12/03 07:44:11;;;;;;;7.70;4.13;;;;;;;-2.90;100.00;100146.97;5018724;28;20475;-79
2021/12/03 07:46:38;;;;;;;8.63;3.40;;;;;;;-2.86;100.00;100146.19;5016577;28;20463;-79
2021/12/03 07:49:05;;;;;;;7.50;3.60;;;;;;;-2.86;100.00;100142.78;5014074;28;20467;-79
2021/12/03 07:51:32;;;;;;;8.67;3.57;;;;;;;-2.83;100.00;100141.97;5019336;28;20832;-79
2021/12/03 07:53:58;;;;;;;6.60;3.23;;;;;;;-2.84;100.00;100147.94;5020030;28;20551;-79
2021/12/03 07:56:25;;;;;;;7.27;3.83;;;;;;;-2.83;100.00;100145.41;5019618;28;20462;-79
2021/12/03 07:58:51;;;;;;;7.73;4.13;;;;;;;-2.81;100.00;100153.06;5021560;28;20503;-79
2021/12/03 08:01:18;;;;;;;6.97;3.60;;;;;;;-2.75;100.00;100155.75;5016902;28;20977;-79
2021/12/03 08:03:45;;;;;;;7.07;3.33;;;;;;;-2.69;100.00;100158.44;5015301;28;20485;-79
2021/12/03 08:06:13;;;;;;;8.67;3.50;;;;;;;-2.65;100.00;100157.69;5019662;28;21285;-79
2021/12/03 08:08:41;;;;;;;6.00;3.60;;;;;;;-2.62;100.00;100165.41;5016418;28;20488;-79
2021/12/03 08:11:08;;;;;;;4.73;2.87;;;;;;;-2.54;100.00;100163.84;5019857;28;20477;-79
2021/12/03 08:13:35;;;;;;;8.97;3.67;;;;;;;-2.53;100.00;100168.13;5018365;28;20472;-79
2021/12/03 08:16:02;;;;;;;7.57;2.97;;;;;;;-2.50;100.00;100174.97;5017487;28;20458;-80
2021/12/03 08:18:29;;;;;;;5.73;3.13;;;;;;;-2.47;100.00;100169.94;5017448;28;20458;-79
2021/12/03 08:20:55;;;;;;;6.07;3.40;;;;;;;-2.44;100.00;100167.44;5021747;28;20452;-80
2021/12/03 08:23:23;;;;;;;8.30;3.70;;;;;;;-2.40;100.00;100176.88;5011789;28;20481;-80
2021/12/03 08:25:50;;;;;;;7.80;3.30;;;;;;;-2.34;100.00;100186.34;5022905;28;20489;-80
2021/12/03 08:28:16;;;;;;;9.37;3.20;;;;;;;-2.31;100.00;100179.59;5019543;28;21044;-79
2021/12/03 08:30:43;;;;;;;5.80;3.43;;;;;;;-2.29;100.00;100182.19;5024199;28;20461;-80
2021/12/03 08:33:09;;;;;;;5.77;3.17;;;;;;;-2.28;100.00;100183.94;5019589;28;20488;-79
2021/12/03 08:35:35;;;;;;;3.70;2.60;;;;;;;-2.25;100.00;100184.00;5019284;28;21023;-80
2021/12/03 08:38:02;;;;;;;7.30;3.30;;;;;;;-2.18;100.00;100187.50;5014842;28;20832;-80
2021/12/03 08:40:30;;;;;;;7.93;3.17;;;;;;;-2.13;100.00;100189.31;5021494;28;20207;-80
2021/12/03 08:42:56;;;;;;;6.93;3.33;;;;;;;-2.07;100.00;100187.72;5021366;28;20841;-80
2021/12/03 08:45:23;;;;;;;4.27;2.90;;;;;;;-2.02;100.00;100189.53;5027004;28;20210;-80
2021/12/03 08:47:53;;;;;;;8.30;2.83;;;;;;;-1.94;100.00;100192.19;5021595;28;20696;-80
2021/12/03 08:50:27;;;;;;;4.60;3.13;;;;;;;-1.88;100.00;100197.44;5023974;28;20469;-81
2021/12/03 08:53:11;;;;;;;5.63;3.30;;;;;;;-1.82;100.00;100199.22;5024889;28;20265;-81
2021/12/03 08:55:40;;;;;;;9.77;3.17;;;;;;;-1.76;100.00;100202.75;5025770;28;21020;-79
2021/12/03 08:58:07;;;;;;;6.70;3.00;;;;;;;-1.68;100.00;100205.44;5023505;28;20450;-80
2021/12/03 09:00:36;;;;;;;5.13;3.30;;;;;;;-1.63;100.00;100211.50;5020782;28;20458;-81
2021/12/03 09:03:02;;;;;;;5.63;3.23;;;;;;;-1.56;100.00;100205.63;5020978;28;20220;-80
2021/12/03 09:05:30;;;;;;;6.00;2.57;;;;;;;-1.49;100.00;100209.16;5022367;28;20207;-80
2021/12/03 09:07:57;;;;;;;5.57;2.77;;;;;;;-1.44;100.00;100206.66;5024844;28;20223;-80
2021/12/03 09:10:25;;;;;;;5.70;2.97;;;;;;;-1.41;100.00;100201.59;5017606;28;20553;-80
2021/12/03 09:12:53;;;;;;;3.67;2.63;;;;;;;-1.35;100.00;100206.81;5026265;28;20298;-83
2021/12/03 09:15:25;;;;;;;4.93;2.67;;;;;;;-1.27;100.00;100206.94;5023243;28;20197;-80
2021/12/03 09:18:03;;;;;;;3.63;2.50;;;;;;;-1.25;100.00;100205.25;5018016;28;20274;-79
2021/12/03 09:20:41;;;;;;;6.53;2.97;;;;;;;-1.22;100.00;100215.53;5024466;28;20200;-81
2021/12/03 09:23:11;;;;;;;5.23;3.07;;;;;;;-1.16;100.00;100216.50;5022757;28;20247;-80
2021/12/03 09:25:44;;;;;;;5.83;2.50;;;;;;;-1.11;99.58;100215.69;5023419;28;20208;-81
2021/12/03 09:28:13;;;;;;;5.20;2.73;;;;;;;-1.07;99.41;100210.66;5018441;28;20221;-80
2021/12/03 09:30:43;;;;;;;3.67;2.57;;;;;;;-0.98;99.48;100215.91;5020933;28;20235;-81
2021/12/03 09:33:13;;;;;;;8.70;2.67;;;;;;;-0.90;98.38;100220.25;5021992;28;20234;-80
2021/12/03 09:35:43;;;;;;;3.93;2.37;;;;;;;-0.86;97.42;100215.22;5022009;28;20239;-81
2021/12/03 09:38:09;;;;;;;5.63;2.93;;;;;;;-0.83;98.07;100216.94;5014291;28;20278;-81
2021/12/03 09:40:36;;;;;;;4.63;2.50;;;;;;;-0.88;97.63;100222.03;5023272;28;20323;-81
2021/12/03 09:43:03;;;;;;;4.83;2.60;;;;;;;-0.87;97.37;100210.94;5018357;28;20227;-80
2021/12/03 09:45:31;;;;;;;3.57;2.23;;;;;;;-0.80;97.43;100211.88;5023695;28;20239;-80
2021/12/03 09:47:58;;;;;;;6.23;2.20;;;;;;;-0.77;96.43;100217.91;5020647;28;20320;-80
2021/12/03 09:50:24;;;;;;;4.23;2.67;;;;;;;-0.73;96.76;100211.13;5021104;28;20235;-80
2021/12/03 09:53:06;;;;;;;3.47;2.03;;;;;;;-0.69;95.48;100207.75;5023889;28;20587;-79
2021/12/03 09:55:33;;;;;;;5.90;2.50;;;;;;;-0.62;95.24;100203.56;5022661;28;20578;-80
2021/12/03 09:58:07;;;;;;;4.40;2.30;;;;;;;-0.58;94.60;100198.53;5025344;28;20200;-80
2021/12/03 10:00:38;;;;;;;4.30;2.50;;;;;;;-0.52;94.04;100200.28;5023667;28;20195;-81
2021/12/03 10:17:35;;;;;;;3.67;1.90;;;;;;;-0.31;92.20;100198.84;5015200;28;20215;-81
2021/12/03 10:20:14;;;;;;;2.53;1.80;;;;;;;-0.26;90.73;100200.59;5015789;28;20208;-82
2021/12/03 10:34:13;;;;;;;3.10;1.87;;;;;;;-0.03;90.77;100207.69;5025094;28;20252;-81
2021/12/03 10:39:50;;;;;;;4.10;2.00;;;;;;;0.04;90.47;100195.78;4983368;28;20218;-80
2021/12/03 10:45:11;;;;;;;3.80;1.80;;;;;;;0.14;89.09;100200.13;5018735;28;20226;-81
2021/12/03 10:47:56;;;;;;;2.80;1.53;;;;;;;0.16;89.52;100193.34;5023064;28;20227;-79
2021/12/03 10:50:43;;;;;;;3.60;2.10;;;;;;;0.21;89.33;100193.38;5022167;28;20286;-80
2021/12/03 10:59:07;;;;;;;3.97;2.23;;;;;;;0.24;88.44;100213.91;5020874;28;20291;-81
2021/12/03 11:02:13;;;;;;;5.53;2.93;;;;;;;0.29;88.03;100218.25;5020391;28;20207;-81
2021/12/03 11:07:59;;;;;;;5.33;2.10;;;;;;;0.37;86.99;100218.31;5016037;28;20626;-80
2021/12/03 11:13:52;;;;;;;2.87;1.50;;;;;;;0.43;86.07;100208.09;5015905;28;20331;-81
2021/12/03 11:19:48;;;;;;;5.23;2.03;;;;;;;0.46;85.74;100202.13;5021523;28;20223;-82
2021/12/03 11:26:06;;;;;;;3.37;2.33;;;;;;;0.59;84.11;100209.09;5018103;28;20243;-81
2021/12/03 11:34:40;;;;;;;6.33;3.07;;;;;;;0.64;82.95;100212.56;5025304;28;20247;-82
2021/12/03 12:00:35;;;;;;;3.93;1.13;;;;;;;0.77;78.55;100208.38;5018607;28;20215;-83
2021/12/03 13:18:30;;;;;;;5.20;1.80;;;;;;;0.22;81.96;100210.50;5103986;28;20286;-82
2021/12/03 13:24:35;;;;;;;3.93;1.93;;;;;;;0.13;82.44;100211.25;5100405;28;20230;-82
2021/12/03 13:27:40;;;;;;;2.00;1.67;;;;;;;0.05;82.83;100200.06;5101447;28;20191;-81
2021/12/03 14:01:25;;;;;;;2.47;2.10;;;;;;;-0.10;86.99;100176.00;5081294;27;20615;-85
2021/12/03 14:04:44;;;;;;;4.90;2.20;;;;;;;-0.14;86.67;100170.81;5078996;28;20221;-82
2021/12/03 14:10:03;;;;;;;3.10;2.30;;;;;;;-0.18;87.45;100169.91;5074482;28;20749;-81
2021/12/03 14:38:12;;;;;;;3.23;2.03;;;;;;;-0.32;89.82;100169.78;5056133;28;20206;-82
2021/12/03 14:41:03;;;;;;;3.57;2.10;;;;;;;-0.35;89.74;100176.56;5076402;28;20222;-83
2021/12/03 14:43:43;;;;;;;2.77;2.20;;;;;;;-0.40;90.29;100171.41;5080899;28;20661;-84
2021/12/03 14:46:42;;;;;;;4.37;2.00;;;;;;;-0.43;90.75;100174.78;5082767;28;20251;-81
2021/12/03 14:52:07;;;;;;;4.70;2.23;;;;;;;-0.40;90.58;100168.84;5081873;28;20202;-83
2021/12/03 14:54:46;;;;;;;4.63;2.17;;;;;;;-0.44;90.75;100167.06;5078401;28;20233;-85
2021/12/03 14:57:28;;;;;;;3.90;2.37;;;;;;;-0.50;91.77;100172.13;5084242;28;20748;-83
2021/12/03 15:00:09;;;;;;;3.17;2.17;;;;;;;-0.54;91.75;100157.59;5078063;28;20252;-81
2021/12/03 15:02:55;;;;;;;3.63;2.47;;;;;;;-0.54;91.83;100167.84;5080780;28;20240;-83
2021/12/03 15:05:37;;;;;;;3.53;2.20;;;;;;;-0.57;91.80;100166.94;5081808;28;20664;-83
2021/12/03 15:08:07;;;;;;;4.83;2.37;;;;;;;-0.60;92.39;100160.91;5081774;28;20688;-84
2021/12/03 15:10:46;;;;;;;5.53;2.60;;;;;;;-0.57;91.76;100166.94;5079879;28;20203;-85